createdAt,value
2023-05-19T00:02:21.279Z,3.58
2023-05-19T00:05:25.005Z,3.88
2023-05-19T00:08:27.166Z,3.20
2023-05-19T00:11:29.285Z,3.67
2023-05-19T00:14:38.458Z,3.70
2023-05-19T00:17:42.577Z,3.85
2023-05-19T00:20:45.116Z,3.42
2023-05-19T00:23:47.143Z,3.60
2023-05-19T00:26:49.561Z,3.63
2023-05-19T00:29:52.132Z,3.40
2023-05-19T00:32:54.205Z,3.63
2023-05-19T00:35:56.738Z,4.20
2023-05-19T00:38:58.956Z,3.80
2023-05-19T00:42:01.107Z,4.03
2023-05-19T00:45:03.231Z,3.57
2023-05-19T00:48:05.426Z,4.10
2023-05-19T00:51:07.672Z,4.00
2023-05-19T00:54:10.246Z,4.32
2023-05-19T00:57:13.833Z,4.57
2023-05-19T01:00:16.314Z,4.30
2023-05-19T01:03:20.832Z,4.40
2023-05-19T01:06:23.220Z,4.38
2023-05-19T01:09:25.417Z,4.00
2023-05-19T01:12:27.799Z,4.87
2023-05-19T01:15:30.073Z,4.20
2023-05-19T01:18:56.418Z,4.80
2023-05-19T01:22:06.968Z,4.53
2023-05-19T01:25:27.366Z,4.20
2023-05-19T01:28:58.469Z,5.00
2023-05-19T01:32:01.539Z,5.00
2023-05-19T01:35:04.399Z,5.00
2023-05-19T01:38:08.181Z,4.85
2023-05-19T01:41:10.201Z,5.13
2023-05-19T01:44:12.280Z,5.30
2023-05-19T01:47:14.883Z,4.47
2023-05-19T01:50:17.813Z,4.65
2023-05-19T01:53:19.881Z,5.03
2023-05-19T01:56:25.593Z,5.47
2023-05-19T01:59:53.704Z,4.73
2023-05-19T02:03:08.103Z,4.85
2023-05-19T02:06:10.361Z,4.47
2023-05-19T02:09:12.750Z,4.57
2023-05-19T02:12:14.798Z,4.97
2023-05-19T02:15:17.312Z,5.47
2023-05-19T02:18:20.459Z,5.32
2023-05-19T02:21:26.086Z,6.10
2023-05-19T02:24:30.514Z,5.10
2023-05-19T02:27:37.559Z,5.40
2023-05-19T02:30:39.586Z,5.80
2023-05-19T02:33:42.999Z,5.43
2023-05-19T02:36:45.419Z,5.80
2023-05-19T02:39:47.386Z,5.27
2023-05-19T02:42:49.562Z,5.47
2023-05-19T02:45:52.006Z,6.18
2023-05-19T02:48:55.083Z,5.57
2023-05-19T02:51:57.440Z,6.50
2023-05-19T02:55:00.190Z,5.93
2023-05-19T02:58:02.209Z,6.53
2023-05-19T03:01:04.791Z,5.72
2023-05-19T03:04:07.371Z,6.60
2023-05-19T03:07:10.403Z,5.00
2023-05-19T03:10:12.930Z,5.18
2023-05-19T03:13:17.177Z,6.13
2023-05-19T03:16:19.719Z,6.13
2023-05-19T03:19:22.001Z,6.17
2023-05-19T03:22:24.262Z,5.25
2023-05-19T03:25:26.750Z,5.63
2023-05-19T03:28:28.980Z,6.53
2023-05-19T03:31:31.938Z,6.13
2023-05-19T03:34:35.487Z,5.60
2023-05-19T03:37:38.120Z,6.05
2023-05-19T03:40:41.493Z,6.07
2023-05-19T03:43:46.098Z,5.90
2023-05-19T03:46:48.791Z,6.10
2023-05-19T03:49:56.823Z,6.45
2023-05-19T03:53:26.545Z,6.00
2023-05-19T03:56:28.836Z,6.40
2023-05-19T03:59:31.572Z,5.97
2023-05-19T04:02:34.178Z,6.93
2023-05-19T04:05:36.426Z,6.85
2023-05-19T04:08:41.959Z,7.55
2023-05-19T04:11:44.221Z,6.97
2023-05-19T04:14:46.821Z,7.30
2023-05-19T04:17:49.357Z,6.80
2023-05-19T04:20:51.393Z,7.53
2023-05-19T04:23:54.803Z,7.90
2023-05-19T04:26:57.325Z,6.87
2023-05-19T04:29:59.879Z,7.60
2023-05-19T04:33:03.565Z,8.25
2023-05-19T04:36:10.529Z,8.07
2023-05-19T04:39:15.789Z,8.50
2023-05-19T04:42:21.005Z,8.67
2023-05-19T04:45:25.922Z,8.45
2023-05-19T04:48:59.453Z,7.40
2023-05-19T04:52:01.691Z,8.02
2023-05-19T04:55:05.565Z,8.43
2023-05-19T04:58:08.138Z,7.60
2023-05-19T05:01:13.934Z,7.40
2023-05-19T05:04:16.376Z,7.05
2023-05-19T05:07:18.993Z,6.95
2023-05-19T05:10:22.022Z,7.37
2023-05-19T05:13:24.488Z,7.25
2023-05-19T05:16:26.777Z,8.13
2023-05-19T05:19:29.198Z,8.45
2023-05-19T05:22:35.085Z,8.03
2023-05-19T05:25:38.120Z,7.83
2023-05-19T05:28:41.363Z,9.18
2023-05-19T05:31:43.472Z,9.30
2023-05-19T05:34:46.573Z,8.30
2023-05-19T05:37:48.834Z,8.80
2023-05-19T05:40:51.268Z,8.33
2023-05-19T05:43:53.819Z,9.40
2023-05-19T05:46:56.423Z,10.05
2023-05-19T05:49:59.863Z,8.50
2023-05-19T05:53:03.044Z,9.63
2023-05-19T05:56:06.176Z,9.03
2023-05-19T05:59:23.218Z,9.07
2023-05-19T06:05:33.713Z,8.57
2023-05-19T06:08:36.863Z,8.90
2023-05-19T06:11:39.947Z,8.50
2023-05-19T06:14:42.623Z,7.72
2023-05-19T06:17:51.834Z,7.68
2023-05-19T06:21:03.371Z,8.45
2023-05-19T06:24:06.065Z,8.10
2023-05-19T06:27:08.582Z,7.40
2023-05-19T06:30:11.025Z,8.60
2023-05-19T06:33:25.035Z,9.43
2023-05-19T06:36:28.920Z,8.57
2023-05-19T06:39:33.444Z,8.13
2023-05-19T06:42:35.849Z,8.07
2023-05-19T06:45:48.953Z,9.43
2023-05-19T06:48:51.164Z,8.15
2023-05-19T06:51:57.281Z,7.32
2023-05-19T06:55:00.014Z,8.50
2023-05-19T06:58:02.210Z,8.23
2023-05-19T07:01:05.199Z,8.15
2023-05-19T07:04:14.091Z,8.50
2023-05-19T07:07:16.330Z,8.35
2023-05-19T07:10:21.503Z,9.27
2023-05-19T07:13:25.965Z,9.27
2023-05-19T07:16:30.249Z,9.75
2023-05-19T07:19:32.882Z,7.47
2023-05-19T07:22:35.364Z,7.80
2023-05-19T07:25:38.000Z,6.60
2023-05-19T07:28:41.742Z,8.30
2023-05-19T07:31:44.110Z,7.82
2023-05-19T07:34:46.784Z,6.13
2023-05-19T07:37:49.404Z,6.53
2023-05-19T07:40:52.780Z,6.97
2023-05-19T07:43:55.066Z,6.43
2023-05-19T07:46:57.423Z,6.55
2023-05-19T07:50:00.010Z,5.68
2023-05-19T07:53:02.159Z,6.10
2023-05-19T07:56:04.826Z,5.73
2023-05-19T07:59:08.052Z,5.83
2023-05-19T08:02:10.338Z,6.10
2023-05-19T08:05:12.559Z,6.30
2023-05-19T08:08:17.094Z,6.15
2023-05-19T08:11:19.591Z,5.47
2023-05-19T08:14:22.996Z,5.53
2023-05-19T08:17:25.991Z,5.72
2023-05-19T08:20:29.536Z,6.18
2023-05-19T08:23:31.886Z,5.80
2023-05-19T08:26:36.896Z,4.80
2023-05-19T08:29:40.012Z,5.60
2023-05-19T08:32:42.574Z,5.30
2023-05-19T08:35:45.044Z,4.90
2023-05-19T08:38:47.534Z,5.75
2023-05-19T08:41:49.602Z,5.20
2023-05-19T08:44:51.790Z,5.50
2023-05-19T08:47:53.962Z,4.85
2023-05-19T08:51:15.100Z,5.90
2023-05-19T08:54:18.661Z,5.55
2023-05-19T08:57:21.404Z,4.90
2023-05-19T09:00:23.730Z,5.20
2023-05-19T09:03:26.673Z,4.90
2023-05-19T09:06:32.463Z,5.28
2023-05-19T09:09:34.614Z,6.40
2023-05-19T09:12:37.294Z,5.40
2023-05-19T09:15:53.412Z,5.20
2023-05-19T09:19:05.354Z,5.43
2023-05-19T09:22:08.598Z,5.70
2023-05-19T09:25:23.053Z,4.97
2023-05-19T09:28:33.328Z,5.20
2023-05-19T09:31:35.900Z,5.37
2023-05-19T09:34:41.752Z,4.95
2023-05-19T09:37:43.965Z,4.85
2023-05-19T09:40:46.423Z,4.63
2023-05-19T09:43:54.352Z,4.90
2023-05-19T09:46:56.461Z,6.00
2023-05-19T09:49:58.663Z,5.18
2023-05-19T09:53:01.032Z,4.15
2023-05-19T09:56:04.304Z,4.47
2023-05-19T09:59:07.250Z,4.20
2023-05-19T10:02:11.643Z,4.50
2023-05-19T10:05:17.337Z,4.32
2023-05-19T10:08:20.247Z,4.55
2023-05-19T10:11:23.188Z,4.10
2023-05-19T10:14:29.251Z,4.40
2023-05-19T10:17:31.379Z,4.60
2023-05-19T10:20:35.284Z,4.47
2023-05-19T10:23:37.539Z,4.35
2023-05-19T10:26:40.134Z,5.45
2023-05-19T10:29:43.581Z,4.17
2023-05-19T10:32:46.663Z,4.00
2023-05-19T10:35:53.482Z,4.25
2023-05-19T10:39:05.674Z,4.70
2023-05-19T10:42:11.650Z,4.05
2023-05-19T10:45:15.409Z,4.07
2023-05-19T10:48:18.242Z,4.77
2023-05-19T10:51:20.677Z,4.15
2023-05-19T10:54:43.417Z,4.18
2023-05-19T10:57:56.797Z,4.18
2023-05-19T11:01:02.055Z,4.27
2023-05-19T11:04:04.816Z,4.13
2023-05-19T11:07:09.027Z,3.97
2023-05-19T11:10:11.624Z,3.95
2023-05-19T11:13:23.462Z,3.60
2023-05-19T11:16:29.961Z,3.67
2023-05-19T11:19:33.242Z,3.93
2023-05-19T11:22:36.448Z,3.80
2023-05-19T11:25:51.899Z,3.75
2023-05-19T11:28:54.087Z,3.92
2023-05-19T11:31:56.277Z,3.80
2023-05-19T11:34:58.523Z,3.77
2023-05-19T11:38:01.813Z,4.00
2023-05-19T11:41:04.488Z,3.53
2023-05-19T11:44:10.362Z,3.78
2023-05-19T11:47:16.665Z,4.20
2023-05-19T11:50:20.329Z,3.80
2023-05-19T11:53:23.481Z,4.00
2023-05-19T11:56:25.703Z,3.40
2023-05-19T11:59:35.625Z,4.38
2023-05-19T12:02:38.729Z,3.67
2023-05-19T12:05:45.587Z,3.60
2023-05-19T12:08:48.067Z,3.42
2023-05-19T12:11:51.364Z,3.50
2023-05-19T12:14:53.542Z,4.03
2023-05-19T12:17:59.448Z,3.70
2023-05-19T12:21:01.575Z,3.00
2023-05-19T12:24:03.714Z,3.80
2023-05-19T12:27:29.105Z,4.10
2023-05-19T12:30:31.991Z,4.18
2023-05-19T12:33:35.762Z,3.50
2023-05-19T12:36:38.502Z,3.33
2023-05-19T12:39:41.619Z,3.47
2023-05-19T12:42:46.964Z,4.50
2023-05-19T12:45:49.285Z,3.60
2023-05-19T12:48:51.944Z,3.40
2023-05-19T12:51:54.429Z,3.50
2023-05-19T12:55:07.845Z,3.45
2023-05-19T12:58:11.747Z,3.30
2023-05-19T13:01:18.021Z,3.10
2023-05-19T13:04:20.799Z,3.50
2023-05-19T13:07:22.949Z,3.10
2023-05-19T13:10:27.291Z,3.65
2023-05-19T13:13:35.662Z,3.50
2023-05-19T13:16:37.924Z,3.20
2023-05-19T13:19:40.198Z,3.20
2023-05-19T13:22:48.939Z,3.50
2023-05-19T13:25:51.656Z,2.90
2023-05-19T13:28:54.040Z,3.10
2023-05-19T13:31:56.139Z,3.10
2023-05-19T13:34:58.723Z,3.23
2023-05-19T13:38:01.205Z,3.20
2023-05-19T13:41:03.330Z,3.42
2023-05-19T13:44:07.945Z,3.20
2023-05-19T13:47:10.203Z,3.25
2023-05-19T13:50:12.625Z,2.93
2023-05-19T13:53:14.801Z,3.43
2023-05-19T13:56:16.915Z,2.95
2023-05-19T13:59:19.060Z,3.65
2023-05-19T14:02:27.148Z,2.97
2023-05-19T14:05:31.905Z,3.10
2023-05-19T14:08:41.798Z,3.33
2023-05-19T14:11:44.168Z,3.53
2023-05-19T14:14:48.414Z,3.40
2023-05-19T14:17:50.682Z,3.22
2023-05-19T14:20:52.797Z,3.90
2023-05-19T14:23:55.255Z,3.00
2023-05-19T14:26:57.297Z,3.50
2023-05-19T14:29:59.397Z,3.60
2023-05-19T14:33:01.594Z,3.47
2023-05-19T14:36:05.413Z,3.63
2023-05-19T14:39:07.906Z,3.40
2023-05-19T14:42:10.422Z,3.88
2023-05-19T14:45:12.635Z,3.17
2023-05-19T14:48:14.818Z,4.10
2023-05-19T14:51:17.313Z,3.70
2023-05-19T14:54:19.845Z,3.57
2023-05-19T14:57:22.283Z,3.60
2023-05-19T15:00:27.859Z,3.50
2023-05-19T15:03:29.964Z,4.15
2023-05-19T15:06:32.009Z,3.93
2023-05-19T15:09:34.116Z,4.03
2023-05-19T15:12:43.189Z,3.80
2023-05-19T15:15:46.087Z,4.20
2023-05-19T15:18:48.261Z,3.83
2023-05-19T15:21:50.806Z,3.80
2023-05-19T15:24:52.969Z,4.23
2023-05-19T15:27:55.014Z,4.15
2023-05-19T15:30:57.244Z,4.13
2023-05-19T15:33:59.515Z,4.28
2023-05-19T15:37:01.482Z,3.83
2023-05-19T15:40:04.523Z,4.10
2023-05-19T15:43:06.610Z,3.67
2023-05-19T15:46:08.722Z,3.92
2023-05-19T15:49:12.793Z,4.10
2023-05-19T15:52:15.168Z,4.03
2023-05-19T15:55:17.314Z,4.00
2023-05-19T15:58:19.312Z,4.15
2023-05-19T16:01:21.757Z,4.97
2023-05-19T16:04:24.039Z,4.68
2023-05-19T16:07:31.298Z,3.93
2023-05-19T16:10:42.366Z,4.93
2023-05-19T16:13:44.964Z,4.72
2023-05-19T16:16:47.762Z,4.50
2023-05-19T16:19:49.923Z,4.30
2023-05-19T16:22:53.988Z,4.00
2023-05-19T16:25:57.706Z,3.80
2023-05-19T16:28:59.827Z,3.92
2023-05-19T16:32:02.236Z,4.53
2023-05-19T16:35:04.710Z,4.15
2023-05-19T16:38:06.859Z,4.23
2023-05-19T16:41:11.653Z,4.17
2023-05-19T16:44:14.716Z,3.95
2023-05-19T16:47:17.251Z,4.20
2023-05-19T16:50:20.873Z,4.45
2023-05-19T16:53:23.111Z,4.87
2023-05-19T16:56:25.397Z,5.03
2023-05-19T16:59:29.224Z,4.68
2023-05-19T17:02:31.509Z,3.92
2023-05-19T17:05:33.641Z,4.03
2023-05-19T17:08:35.848Z,4.40
2023-05-19T17:11:37.900Z,3.90
2023-05-19T17:14:40.006Z,4.28
2023-05-19T17:17:42.121Z,4.40
2023-05-19T17:20:44.404Z,4.70
2023-05-19T17:23:46.588Z,4.83
2023-05-19T17:26:48.707Z,4.37
2023-05-19T17:29:50.768Z,4.22
2023-05-19T17:32:52.970Z,4.20
2023-05-19T17:35:55.306Z,4.07
2023-05-19T17:38:57.384Z,4.57
2023-05-19T17:41:59.795Z,4.53
2023-05-19T17:45:04.411Z,4.85
2023-05-19T17:48:06.627Z,4.68
2023-05-19T17:51:09.226Z,4.95
2023-05-19T17:54:11.963Z,5.07
2023-05-19T17:57:14.140Z,4.63
2023-05-19T18:00:16.360Z,4.80
2023-05-19T18:03:19.090Z,4.90
2023-05-19T18:06:21.706Z,4.57
2023-05-19T18:09:24.933Z,4.90
2023-05-19T18:12:28.060Z,4.63
2023-05-19T18:15:30.633Z,5.28
2023-05-19T18:18:34.491Z,5.65
2023-05-19T18:21:37.335Z,5.15
2023-05-19T18:24:39.564Z,5.60
2023-05-19T18:27:43.811Z,5.33
2023-05-19T18:30:46.353Z,5.28
2023-05-19T18:33:49.049Z,5.75
2023-05-19T18:36:51.133Z,6.00
2023-05-19T18:39:53.204Z,6.13
2023-05-19T18:42:55.262Z,6.93
2023-05-19T18:45:58.354Z,7.18
2023-05-19T18:49:00.949Z,7.38
2023-05-19T18:52:03.145Z,7.25
2023-05-19T18:55:05.374Z,7.87
2023-05-19T18:58:07.402Z,7.93
2023-05-19T19:01:09.746Z,8.70
2023-05-19T19:04:12.092Z,8.50
2023-05-19T19:07:14.116Z,8.93
2023-05-19T19:10:16.660Z,9.17
2023-05-19T19:13:19.210Z,8.80
2023-05-19T19:16:21.327Z,9.23
2023-05-19T19:19:24.021Z,9.70
2023-05-19T19:22:26.212Z,9.48
2023-05-19T19:25:28.434Z,11.00
2023-05-19T19:28:30.696Z,11.57
2023-05-19T19:31:33.462Z,10.50
2023-05-19T19:34:35.584Z,10.77
2023-05-19T19:37:37.731Z,9.75
2023-05-19T19:40:39.880Z,10.57
2023-05-19T19:43:41.896Z,9.80
2023-05-19T19:46:44.322Z,9.75
2023-05-19T19:49:46.850Z,10.60
2023-05-19T19:52:49.248Z,11.07
2023-05-19T19:56:00.893Z,10.57
2023-05-19T19:59:03.313Z,10.87
2023-05-19T20:02:05.417Z,11.07
2023-05-19T20:05:07.755Z,11.35
2023-05-19T20:08:09.831Z,10.68
2023-05-19T20:11:12.262Z,9.60
2023-05-19T20:14:14.287Z,9.57
2023-05-19T20:17:17.125Z,9.48
2023-05-19T20:20:19.226Z,9.73
2023-05-19T20:23:21.667Z,9.50
2023-05-19T20:26:23.773Z,9.43
2023-05-19T20:29:26.556Z,9.80
2023-05-19T20:32:29.033Z,9.52
2023-05-19T20:35:31.339Z,9.20
2023-05-19T20:38:33.550Z,8.95
2023-05-19T20:41:36.062Z,9.67
2023-05-19T20:44:38.495Z,9.87
2023-05-19T20:47:41.071Z,9.80
2023-05-19T20:50:43.202Z,9.10
2023-05-19T20:53:45.989Z,10.20
2023-05-19T20:56:48.026Z,10.43
2023-05-19T20:59:50.550Z,13.03
2023-05-19T21:02:54.310Z,13.90
2023-05-19T21:05:56.946Z,12.45
2023-05-19T21:09:03.508Z,10.60
2023-05-19T21:12:05.712Z,9.93
2023-05-19T21:15:08.084Z,10.27
2023-05-19T21:18:11.741Z,10.75
2023-05-19T21:21:13.884Z,10.98
2023-05-19T21:24:16.356Z,9.93
2023-05-19T21:27:18.456Z,10.47
2023-05-19T21:30:20.807Z,10.93
2023-05-19T21:33:23.268Z,9.68
2023-05-19T21:36:25.433Z,9.77
2023-05-19T21:39:27.489Z,9.73
2023-05-19T21:42:29.603Z,9.57
2023-05-19T21:45:32.010Z,10.43
2023-05-19T21:48:34.546Z,11.35
2023-05-19T21:51:36.762Z,9.85
2023-05-19T21:54:39.194Z,10.57
2023-05-19T21:57:41.446Z,10.23
2023-05-19T22:00:47.747Z,10.53
2023-05-19T22:03:49.938Z,9.85
2023-05-19T22:06:52.533Z,10.02
2023-05-19T22:09:54.545Z,11.35
2023-05-19T22:12:57.579Z,10.53
2023-05-19T22:16:00.107Z,10.47
2023-05-19T22:19:02.625Z,11.35
2023-05-19T22:22:13.288Z,10.82
2023-05-19T22:25:17.152Z,11.27
2023-05-19T22:28:19.519Z,11.27
2023-05-19T22:31:21.701Z,11.10
2023-05-19T22:34:23.780Z,11.20
2023-05-19T22:37:25.858Z,11.57
2023-05-19T22:40:27.891Z,11.63
2023-05-19T22:43:30.373Z,12.13
2023-05-19T22:46:34.243Z,11.50
2023-05-19T22:49:36.409Z,11.93
2023-05-19T22:52:38.422Z,10.85
2023-05-19T22:55:40.518Z,11.20
2023-05-19T22:58:42.854Z,10.57
2023-05-19T23:01:46.788Z,11.33
2023-05-19T23:04:49.506Z,10.93
2023-05-19T23:07:51.954Z,10.77
2023-05-19T23:10:54.430Z,10.88
2023-05-19T23:13:56.862Z,9.83
2023-05-19T23:16:59.375Z,10.90
2023-05-19T23:20:01.401Z,10.60
2023-05-19T23:23:03.538Z,10.82
2023-05-19T23:26:05.947Z,10.57
2023-05-19T23:29:10.744Z,10.27
2023-05-19T23:32:13.228Z,10.57
2023-05-19T23:35:18.048Z,10.32
2023-05-19T23:38:20.000Z,10.52
2023-05-19T23:41:22.423Z,11.25
2023-05-19T23:44:24.504Z,11.27
2023-05-19T23:47:26.873Z,10.93
2023-05-19T23:50:28.870Z,10.63
2023-05-19T23:53:31.536Z,9.88
2023-05-19T23:56:33.967Z,9.90
2023-05-19T23:59:36.116Z,9.67
